Time;durP1;ratioP1;P1;durP2;ratioP2;P2;SDS_P1;SDS_P2;PMS_P1;PMS_P2;Temp;Humidity;BMP_temperature;BMP_pressure;BME280_temperature;BME280_humidity;BME280_pressure;Samples;Min_cycle;Max_cycle;Signal;HPM_P1;HPM_P2
2020/12/03 00:00:57;;;;;;;48.3;21.05;;;;;;;-1.74;89.97461;94641.71;;;;
2020/12/03 00:02:00;;;;;;;48.3;21.05;;;;;;;-1.74;89.97461;94641.71;;;;
2020/12/03 00:03:01;;;;;;;48.3;21.05;;;;;;;-1.74;89.97461;94641.71;;;;
2020/12/03 00:04:05;;;;;;;48.3;21.05;;;;;;;-1.74;89.97461;94641.71;;;;
2020/12/03 00:05:06;;;;;;;48.3;21.05;;;;;;;-1.74;89.97461;94641.71;;;;
2020/12/03 00:06:06;;;;;;;48.3;21.05;;;;;;;-1.74;89.97461;94641.71;;;;
2020/12/03 00:07:14;;;;;;;48.3;21.05;;;;;;;-1.74;89.97461;94641.71;;;;
2020/12/03 00:08:15;;;;;;;48.3;21.05;;;;;;;-1.74;89.97461;94641.71;;;;
2020/12/03 00:09:15;;;;;;;48.3;21.05;;;;;;;-1.74;89.97461;94641.71;;;;
2020/12/03 00:10:19;;;;;;;48.3;21.05;;;;;;;-1.74;89.97461;94641.71;;;;
2020/12/03 00:11:20;;;;;;;48.3;21.05;;;;;;;-1.74;89.97461;94641.71;;;;
2020/12/03 00:12:22;;;;;;;56.10001;22.35;;;;;;;-1.76;90.38477;94646.77;;;;
2020/12/03 00:13:23;;;;;;;56.10001;22.35;;;;;;;-1.76;90.38477;94646.77;;;;
2020/12/03 00:14:25;;;;;;;56.10001;22.35;;;;;;;-1.76;90.38477;94646.77;;;;
2020/12/03 00:15:26;;;;;;;56.10001;22.35;;;;;;;-1.76;90.38477;94646.77;;;;
2020/12/03 00:16:26;;;;;;;56.10001;22.35;;;;;;;-1.76;90.38477;94646.77;;;;
2020/12/03 00:17:29;;;;;;;56.10001;22.35;;;;;;;-1.76;90.38477;94646.77;;;;
2020/12/03 00:18:29;;;;;;;56.10001;22.35;;;;;;;-1.76;90.38477;94646.77;;;;
2020/12/03 00:19:32;;;;;;;56.10001;22.35;;;;;;;-1.76;90.38477;94646.77;;;;
2020/12/03 00:20:33;;;;;;;56.10001;22.35;;;;;;;-1.76;90.38477;94646.77;;;;
2020/12/03 00:21:34;;;;;;;56.10001;22.35;;;;;;;-1.76;90.38477;94646.77;;;;
2020/12/03 00:22:40;;;;;;;51.95;22.25;;;;;;;-1.76;90.51855;94658.67;;;;
2020/12/03 00:23:41;;;;;;;51.95;22.25;;;;;;;-1.76;90.51855;94658.67;;;;
2020/12/03 00:24:42;;;;;;;51.95;22.25;;;;;;;-1.76;90.51855;94658.67;;;;
2020/12/03 00:25:42;;;;;;;51.95;22.25;;;;;;;-1.76;90.51855;94658.67;;;;
2020/12/03 00:26:44;;;;;;;51.95;22.25;;;;;;;-1.76;90.51855;94658.67;;;;
2020/12/03 00:27:46;;;;;;;51.95;22.25;;;;;;;-1.76;90.51855;94658.67;;;;
2020/12/03 00:28:50;;;;;;;51.95;22.25;;;;;;;-1.76;90.51855;94658.67;;;;
2020/12/03 00:29:51;;;;;;;51.95;22.25;;;;;;;-1.76;90.51855;94658.67;;;;
2020/12/03 00:30:51;;;;;;;51.95;22.25;;;;;;;-1.76;90.51855;94658.67;;;;
2020/12/03 00:31:52;;;;;;;51.95;22.25;;;;;;;-1.76;90.51855;94658.67;;;;
2020/12/03 00:32:53;;;;;;;51.95;22.25;;;;;;;-1.76;90.51855;94658.67;;;;
2020/12/03 00:33:54;;;;;;;49.35;22.35;;;;;;;-1.78;90.55664;94652.76;;;;
2020/12/03 00:34:55;;;;;;;49.35;22.35;;;;;;;-1.78;90.55664;94652.76;;;;
2020/12/03 00:35:56;;;;;;;49.35;22.35;;;;;;;-1.78;90.55664;94652.76;;;;
2020/12/03 00:36:56;;;;;;;49.35;22.35;;;;;;;-1.78;90.55664;94652.76;;;;
2020/12/03 00:37:57;;;;;;;49.35;22.35;;;;;;;-1.78;90.55664;94652.76;;;;
2020/12/03 00:38:58;;;;;;;49.35;22.35;;;;;;;-1.78;90.55664;94652.76;;;;
2020/12/03 00:40:00;;;;;;;49.35;22.35;;;;;;;-1.78;90.55664;94652.76;;;;
2020/12/03 00:41:00;;;;;;;49.35;22.35;;;;;;;-1.78;90.55664;94652.76;;;;
2020/12/03 00:42:01;;;;;;;49.35;22.35;;;;;;;-1.78;90.55664;94652.76;;;;
2020/12/03 00:43:01;;;;;;;49.35;22.35;;;;;;;-1.78;90.55664;94652.76;;;;
2020/12/03 00:44:02;;;;;;;50.39999;22.1;;;;;;;-1.77;90.66211;94642.9;;;;
2020/12/03 00:45:02;;;;;;;50.39999;22.1;;;;;;;-1.77;90.66211;94642.9;;;;
2020/12/03 00:46:06;;;;;;;50.39999;22.1;;;;;;;-1.77;90.66211;94642.9;;;;
2020/12/03 00:47:06;;;;;;;50.39999;22.1;;;;;;;-1.77;90.66211;94642.9;;;;
2020/12/03 00:48:07;;;;;;;50.39999;22.1;;;;;;;-1.77;90.66211;94642.9;;;;
2020/12/03 00:49:07;;;;;;;50.39999;22.1;;;;;;;-1.77;90.66211;94642.9;;;;
2020/12/03 00:50:08;;;;;;;50.39999;22.1;;;;;;;-1.77;90.66211;94642.9;;;;
2020/12/03 00:51:12;;;;;;;50.39999;22.1;;;;;;;-1.77;90.66211;94642.9;;;;
2020/12/03 00:52:13;;;;;;;50.39999;22.1;;;;;;;-1.77;90.66211;94642.9;;;;
2020/12/03 00:53:14;;;;;;;50.39999;22.1;;;;;;;-1.77;90.66211;94642.9;;;;
2020/12/03 00:54:15;;;;;;;50.10001;22.6;;;;;;;-1.67;90.70508;94632.89;;;;
2020/12/03 00:55:15;;;;;;;50.10001;22.6;;;;;;;-1.67;90.70508;94632.89;;;;
2020/12/03 00:56:18;;;;;;;50.10001;22.6;;;;;;;-1.67;90.70508;94632.89;;;;
2020/12/03 00:57:19;;;;;;;50.10001;22.6;;;;;;;-1.67;90.70508;94632.89;;;;
2020/12/03 00:58:19;;;;;;;50.10001;22.6;;;;;;;-1.67;90.70508;94632.89;;;;
2020/12/03 00:59:20;;;;;;;50.10001;22.6;;;;;;;-1.67;90.70508;94632.89;;;;
2020/12/03 01:00:20;;;;;;;50.10001;22.6;;;;;;;-1.67;90.70508;94632.89;;;;
2020/12/03 01:01:21;;;;;;;50.10001;22.6;;;;;;;-1.67;90.70508;94632.89;;;;
2020/12/03 01:02:22;;;;;;;50.10001;22.6;;;;;;;-1.67;90.70508;94632.89;;;;
2020/12/03 01:03:23;;;;;;;50.10001;22.6;;;;;;;-1.67;90.70508;94632.89;;;;
2020/12/03 01:04:23;;;;;;;50.10001;22.6;;;;;;;-1.67;90.70508;94632.89;;;;
2020/12/03 01:05:24;;;;;;;46.95;20.7;;;;;;;-1.58;90.3916;94641.99;;;;
2020/12/03 01:06:24;;;;;;;46.95;20.7;;;;;;;-1.58;90.3916;94641.99;;;;
2020/12/03 01:07:25;;;;;;;46.95;20.7;;;;;;;-1.58;90.3916;94641.99;;;;
2020/12/03 01:08:26;;;;;;;46.95;20.7;;;;;;;-1.58;90.3916;94641.99;;;;
2020/12/03 01:09:26;;;;;;;46.95;20.7;;;;;;;-1.58;90.3916;94641.99;;;;
2020/12/03 01:10:27;;;;;;;46.95;20.7;;;;;;;-1.58;90.3916;94641.99;;;;
2020/12/03 01:11:31;;;;;;;46.95;20.7;;;;;;;-1.58;90.3916;94641.99;;;;
2020/12/03 01:12:31;;;;;;;46.95;20.7;;;;;;;-1.58;90.3916;94641.99;;;;
2020/12/03 01:13:32;;;;;;;46.95;20.7;;;;;;;-1.58;90.3916;94641.99;;;;
2020/12/03 01:14:34;;;;;;;46.95;20.7;;;;;;;-1.58;90.3916;94641.99;;;;
2020/12/03 01:15:35;;;;;;;46.7;21.15;;;;;;;-1.62;90.33203;94647.72;;;;
2020/12/03 01:16:36;;;;;;;46.7;21.15;;;;;;;-1.62;90.33203;94647.72;;;;
2020/12/03 01:17:36;;;;;;;46.7;21.15;;;;;;;-1.62;90.33203;94647.72;;;;
2020/12/03 01:18:37;;;;;;;46.7;21.15;;;;;;;-1.62;90.33203;94647.72;;;;
2020/12/03 01:19:37;;;;;;;46.7;21.15;;;;;;;-1.62;90.33203;94647.72;;;;
2020/12/03 01:20:39;;;;;;;46.7;21.15;;;;;;;-1.62;90.33203;94647.72;;;;
2020/12/03 01:21:39;;;;;;;46.7;21.15;;;;;;;-1.62;90.33203;94647.72;;;;
2020/12/03 01:22:40;;;;;;;46.7;21.15;;;;;;;-1.62;90.33203;94647.72;;;;
2020/12/03 01:23:40;;;;;;;46.7;21.15;;;;;;;-1.62;90.33203;94647.72;;;;
2020/12/03 01:24:41;;;;;;;46.7;21.15;;;;;;;-1.62;90.33203;94647.72;;;;
2020/12/03 01:25:42;;;;;;;46.7;21.15;;;;;;;-1.62;90.33203;94647.72;;;;
2020/12/03 01:26:42;;;;;;;50.30001;22.6;;;;;;;-1.64;90.57617;94633.04;;;;
2020/12/03 01:27:43;;;;;;;50.30001;22.6;;;;;;;-1.64;90.57617;94633.04;;;;
2020/12/03 01:28:44;;;;;;;50.30001;22.6;;;;;;;-1.64;90.57617;94633.04;;;;
2020/12/03 01:29:45;;;;;;;50.30001;22.6;;;;;;;-1.64;90.57617;94633.04;;;;
2020/12/03 01:30:45;;;;;;;50.30001;22.6;;;;;;;-1.64;90.57617;94633.04;;;;
2020/12/03 01:31:46;;;;;;;50.30001;22.6;;;;;;;-1.64;90.57617;94633.04;;;;
2020/12/03 01:32:46;;;;;;;50.30001;22.6;;;;;;;-1.64;90.57617;94633.04;;;;
2020/12/03 01:33:47;;;;;;;50.30001;22.6;;;;;;;-1.64;90.57617;94633.04;;;;
2020/12/03 01:34:47;;;;;;;50.30001;22.6;;;;;;;-1.64;90.57617;94633.04;;;;
2020/12/03 01:35:48;;;;;;;50.30001;22.6;;;;;;;-1.64;90.57617;94633.04;;;;
2020/12/03 01:36:48;;;;;;;50.30001;22.6;;;;;;;-1.64;90.57617;94633.04;;;;
2020/12/03 01:37:50;;;;;;;49.20001;21.5;;;;;;;-1.66;90.69434;94618.26;;;;
2020/12/03 01:38:51;;;;;;;49.20001;21.5;;;;;;;-1.66;90.69434;94618.26;;;;
2020/12/03 01:39:52;;;;;;;49.20001;21.5;;;;;;;-1.66;90.69434;94618.26;;;;
2020/12/03 01:40:52;;;;;;;49.20001;21.5;;;;;;;-1.66;90.69434;94618.26;;;;
2020/12/03 01:41:53;;;;;;;49.20001;21.5;;;;;;;-1.66;90.69434;94618.26;;;;
2020/12/03 01:42:53;;;;;;;49.20001;21.5;;;;;;;-1.66;90.69434;94618.26;;;;
2020/12/03 01:43:54;;;;;;;49.20001;21.5;;;;;;;-1.66;90.69434;94618.26;;;;
2020/12/03 01:44:55;;;;;;;49.20001;21.5;;;;;;;-1.66;90.69434;94618.26;;;;
2020/12/03 01:45:55;;;;;;;49.20001;21.5;;;;;;;-1.66;90.69434;94618.26;;;;
2020/12/03 01:46:57;;;;;;;49.20001;21.5;;;;;;;-1.66;90.69434;94618.26;;;;
2020/12/03 01:47:58;;;;;;;49.15;20.6;;;;;;;-1.61;90.82227;94622.02;;;;
2020/12/03 01:48:59;;;;;;;49.15;20.6;;;;;;;-1.61;90.82227;94622.02;;;;
2020/12/03 01:50:03;;;;;;;49.15;20.6;;;;;;;-1.61;90.82227;94622.02;;;;
2020/12/03 01:51:06;;;;;;;49.15;20.6;;;;;;;-1.61;90.82227;94622.02;;;;
2020/12/03 01:52:13;;;;;;;49.15;20.6;;;;;;;-1.61;90.82227;94622.02;;;;
2020/12/03 01:53:14;;;;;;;49.15;20.6;;;;;;;-1.61;90.82227;94622.02;;;;
2020/12/03 01:54:19;;;;;;;49.15;20.6;;;;;;;-1.61;90.82227;94622.02;;;;
2020/12/03 01:55:20;;;;;;;49.15;20.6;;;;;;;-1.61;90.82227;94622.02;;;;
2020/12/03 01:56:21;;;;;;;49.15;20.6;;;;;;;-1.61;90.82227;94622.02;;;;
2020/12/03 01:57:31;;;;;;;49.15;20.6;;;;;;;-1.61;90.82227;94622.02;;;;
2020/12/03 01:58:52;;;;;;;53.05;21.7;;;;;;;-1.56;90.62305;94617.08;;;;
2020/12/03 01:59:55;;;;;;;53.05;21.7;;;;;;;-1.56;90.62305;94617.08;;;;
2020/12/03 02:01:04;;;;;;;53.05;21.7;;;;;;;-1.56;90.62305;94617.08;;;;
2020/12/03 02:02:06;;;;;;;53.05;21.7;;;;;;;-1.56;90.62305;94617.08;;;;
2020/12/03 02:03:11;;;;;;;53.05;21.7;;;;;;;-1.56;90.62305;94617.08;;;;
2020/12/03 02:04:11;;;;;;;53.05;21.7;;;;;;;-1.56;90.62305;94617.08;;;;
2020/12/03 02:05:12;;;;;;;53.05;21.7;;;;;;;-1.56;90.62305;94617.08;;;;
2020/12/03 02:06:15;;;;;;;53.05;21.7;;;;;;;-1.56;90.62305;94617.08;;;;
2020/12/03 02:07:18;;;;;;;53.05;21.7;;;;;;;-1.56;90.62305;94617.08;;;;
2020/12/03 02:08:19;;;;;;;53.05;21.7;;;;;;;-1.56;90.62305;94617.08;;;;
2020/12/03 02:09:19;;;;;;;47.60001;20.15;;;;;;;-1.55;90.55273;94602.37;;;;
2020/12/03 02:10:20;;;;;;;47.60001;20.15;;;;;;;-1.55;90.55273;94602.37;;;;
2020/12/03 02:11:23;;;;;;;47.60001;20.15;;;;;;;-1.55;90.55273;94602.37;;;;
2020/12/03 02:12:24;;;;;;;47.60001;20.15;;;;;;;-1.55;90.55273;94602.37;;;;
2020/12/03 02:13:24;;;;;;;47.60001;20.15;;;;;;;-1.55;90.55273;94602.37;;;;
2020/12/03 02:14:25;;;;;;;47.60001;20.15;;;;;;;-1.55;90.55273;94602.37;;;;
2020/12/03 02:15:25;;;;;;;47.60001;20.15;;;;;;;-1.55;90.55273;94602.37;;;;
2020/12/03 02:16:26;;;;;;;47.60001;20.15;;;;;;;-1.55;90.55273;94602.37;;;;
2020/12/03 02:17:30;;;;;;;47.60001;20.15;;;;;;;-1.55;90.55273;94602.37;;;;
2020/12/03 02:18:31;;;;;;;47.60001;20.15;;;;;;;-1.55;90.55273;94602.37;;;;
2020/12/03 02:19:32;;;;;;;47.60001;20.15;;;;;;;-1.55;90.55273;94602.37;;;;
2020/12/03 02:20:33;;;;;;;42.3;19.2;;;;;;;-1.61;90.59473;94599.52;;;;
2020/12/03 02:21:34;;;;;;;42.3;19.2;;;;;;;-1.61;90.59473;94599.52;;;;
2020/12/03 02:22:34;;;;;;;42.3;19.2;;;;;;;-1.61;90.59473;94599.52;;;;
2020/12/03 02:23:35;;;;;;;42.3;19.2;;;;;;;-1.61;90.59473;94599.52;;;;
2020/12/03 02:24:35;;;;;;;42.3;19.2;;;;;;;-1.61;90.59473;94599.52;;;;
2020/12/03 02:25:39;;;;;;;42.3;19.2;;;;;;;-1.61;90.59473;94599.52;;;;
2020/12/03 02:26:39;;;;;;;42.3;19.2;;;;;;;-1.61;90.59473;94599.52;;;;
2020/12/03 02:27:47;;;;;;;42.3;19.2;;;;;;;-1.61;90.59473;94599.52;;;;
2020/12/03 02:28:47;;;;;;;42.3;19.2;;;;;;;-1.61;90.59473;94599.52;;;;
2020/12/03 02:29:48;;;;;;;42.3;19.2;;;;;;;-1.61;90.59473;94599.52;;;;
2020/12/03 02:30:49;;;;;;;45.6;19.5;;;;;;;-1.63;90.82617;94591.42;;;;
2020/12/03 02:31:49;;;;;;;45.6;19.5;;;;;;;-1.63;90.82617;94591.42;;;;
2020/12/03 02:32:50;;;;;;;45.6;19.5;;;;;;;-1.63;90.82617;94591.42;;;;
2020/12/03 02:33:51;;;;;;;45.6;19.5;;;;;;;-1.63;90.82617;94591.42;;;;
2020/12/03 02:34:51;;;;;;;45.6;19.5;;;;;;;-1.63;90.82617;94591.42;;;;
2020/12/03 02:35:52;;;;;;;45.6;19.5;;;;;;;-1.63;90.82617;94591.42;;;;
2020/12/03 02:36:52;;;;;;;45.6;19.5;;;;;;;-1.63;90.82617;94591.42;;;;
2020/12/03 02:37:55;;;;;;;45.6;19.5;;;;;;;-1.63;90.82617;94591.42;;;;
2020/12/03 02:38:56;;;;;;;45.6;19.5;;;;;;;-1.63;90.82617;94591.42;;;;
2020/12/03 02:39:56;;;;;;;45.6;19.5;;;;;;;-1.63;90.82617;94591.42;;;;
2020/12/03 02:40:57;;;;;;;42.8;19.05;;;;;;;-1.63;90.97168;94581.75;;;;
2020/12/03 02:41:58;;;;;;;42.8;19.05;;;;;;;-1.63;90.97168;94581.75;;;;
2020/12/03 02:43:00;;;;;;;42.8;19.05;;;;;;;-1.63;90.97168;94581.75;;;;
2020/12/03 02:44:00;;;;;;;42.8;19.05;;;;;;;-1.63;90.97168;94581.75;;;;
2020/12/03 02:45:01;;;;;;;42.8;19.05;;;;;;;-1.63;90.97168;94581.75;;;;
2020/12/03 02:46:03;;;;;;;42.8;19.05;;;;;;;-1.63;90.97168;94581.75;;;;
2020/12/03 02:47:05;;;;;;;42.8;19.05;;;;;;;-1.63;90.97168;94581.75;;;;
2020/12/03 02:48:05;;;;;;;42.8;19.05;;;;;;;-1.63;90.97168;94581.75;;;;
2020/12/03 02:49:06;;;;;;;42.8;19.05;;;;;;;-1.63;90.97168;94581.75;;;;
2020/12/03 02:50:07;;;;;;;42.8;19.05;;;;;;;-1.63;90.97168;94581.75;;;;
2020/12/03 02:51:07;;;;;;;42.8;19.05;;;;;;;-1.63;90.97168;94581.75;;;;
2020/12/03 02:52:08;;;;;;;44.8;18.25;;;;;;;-1.6;91.07031;94572.15;;;;
2020/12/03 02:53:10;;;;;;;44.8;18.25;;;;;;;-1.6;91.07031;94572.15;;;;
2020/12/03 02:54:10;;;;;;;44.8;18.25;;;;;;;-1.6;91.07031;94572.15;;;;
2020/12/03 02:55:12;;;;;;;44.8;18.25;;;;;;;-1.6;91.07031;94572.15;;;;
2020/12/03 02:56:13;;;;;;;44.8;18.25;;;;;;;-1.6;91.07031;94572.15;;;;
2020/12/03 02:57:14;;;;;;;44.8;18.25;;;;;;;-1.6;91.07031;94572.15;;;;
2020/12/03 02:58:15;;;;;;;44.8;18.25;;;;;;;-1.6;91.07031;94572.15;;;;
2020/12/03 02:59:16;;;;;;;44.8;18.25;;;;;;;-1.6;91.07031;94572.15;;;;
2020/12/03 03:00:17;;;;;;;44.8;18.25;;;;;;;-1.6;91.07031;94572.15;;;;
2020/12/03 03:01:17;;;;;;;44.8;18.25;;;;;;;-1.6;91.07031;94572.15;;;;
2020/12/03 03:02:18;;;;;;;43.65;19.05;;;;;;;-1.51;90.97656;94579.39;;;;
2020/12/03 03:03:19;;;;;;;43.65;19.05;;;;;;;-1.51;90.97656;94579.39;;;;
2020/12/03 03:04:19;;;;;;;43.65;19.05;;;;;;;-1.51;90.97656;94579.39;;;;
2020/12/03 03:05:20;;;;;;;43.65;19.05;;;;;;;-1.51;90.97656;94579.39;;;;
2020/12/03 03:06:20;;;;;;;43.65;19.05;;;;;;;-1.51;90.97656;94579.39;;;;
2020/12/03 03:07:21;;;;;;;43.65;19.05;;;;;;;-1.51;90.97656;94579.39;;;;
2020/12/03 03:08:21;;;;;;;43.65;19.05;;;;;;;-1.51;90.97656;94579.39;;;;
2020/12/03 03:09:22;;;;;;;43.65;19.05;;;;;;;-1.51;90.97656;94579.39;;;;
2020/12/03 03:10:24;;;;;;;43.65;19.05;;;;;;;-1.51;90.97656;94579.39;;;;
2020/12/03 03:11:24;;;;;;;43.65;19.05;;;;;;;-1.51;90.97656;94579.39;;;;
2020/12/03 03:12:25;;;;;;;43.65;19.05;;;;;;;-1.51;90.97656;94579.39;;;;
2020/12/03 03:13:25;;;;;;;43.2;17.85;;;;;;;-1.43;90.75488;94549.8;;;;
2020/12/03 03:14:26;;;;;;;43.2;17.85;;;;;;;-1.43;90.75488;94549.8;;;;
2020/12/03 03:15:27;;;;;;;43.2;17.85;;;;;;;-1.43;90.75488;94549.8;;;;
2020/12/03 03:16:27;;;;;;;43.2;17.85;;;;;;;-1.43;90.75488;94549.8;;;;
2020/12/03 03:17:28;;;;;;;43.2;17.85;;;;;;;-1.43;90.75488;94549.8;;;;
2020/12/03 03:18:28;;;;;;;43.2;17.85;;;;;;;-1.43;90.75488;94549.8;;;;
2020/12/03 03:19:29;;;;;;;43.2;17.85;;;;;;;-1.43;90.75488;94549.8;;;;
2020/12/03 03:20:29;;;;;;;43.2;17.85;;;;;;;-1.43;90.75488;94549.8;;;;
2020/12/03 03:21:30;;;;;;;43.2;17.85;;;;;;;-1.43;90.75488;94549.8;;;;
2020/12/03 03:22:31;;;;;;;43.2;17.85;;;;;;;-1.43;90.75488;94549.8;;;;
2020/12/03 03:23:31;;;;;;;43.2;17.85;;;;;;;-1.43;90.75488;94549.8;;;;
2020/12/03 03:24:32;;;;;;;42.5;17.85;;;;;;;-1.42;90.62207;94544.84;;;;
2020/12/03 03:25:32;;;;;;;42.5;17.85;;;;;;;-1.42;90.62207;94544.84;;;;
2020/12/03 03:26:33;;;;;;;42.5;17.85;;;;;;;-1.42;90.62207;94544.84;;;;
2020/12/03 03:27:33;;;;;;;42.5;17.85;;;;;;;-1.42;90.62207;94544.84;;;;
2020/12/03 03:28:34;;;;;;;42.5;17.85;;;;;;;-1.42;90.62207;94544.84;;;;
2020/12/03 03:29:34;;;;;;;42.5;17.85;;;;;;;-1.42;90.62207;94544.84;;;;
2020/12/03 03:30:35;;;;;;;42.5;17.85;;;;;;;-1.42;90.62207;94544.84;;;;
2020/12/03 03:31:35;;;;;;;42.5;17.85;;;;;;;-1.42;90.62207;94544.84;;;;
2020/12/03 03:32:36;;;;;;;42.5;17.85;;;;;;;-1.42;90.62207;94544.84;;;;
2020/12/03 03:33:36;;;;;;;42.5;17.85;;;;;;;-1.42;90.62207;94544.84;;;;
2020/12/03 03:34:37;;;;;;;40.35;17.3;;;;;;;-1.41;90.54102;94516.94;;;;
2020/12/03 03:35:38;;;;;;;40.35;17.3;;;;;;;-1.41;90.54102;94516.94;;;;
2020/12/03 03:36:38;;;;;;;40.35;17.3;;;;;;;-1.41;90.54102;94516.94;;;;
2020/12/03 03:37:39;;;;;;;40.35;17.3;;;;;;;-1.41;90.54102;94516.94;;;;
2020/12/03 03:38:39;;;;;;;40.35;17.3;;;;;;;-1.41;90.54102;94516.94;;;;
2020/12/03 03:39:40;;;;;;;40.35;17.3;;;;;;;-1.41;90.54102;94516.94;;;;
2020/12/03 03:40:40;;;;;;;40.35;17.3;;;;;;;-1.41;90.54102;94516.94;;;;
2020/12/03 03:41:41;;;;;;;40.35;17.3;;;;;;;-1.41;90.54102;94516.94;;;;
2020/12/03 03:42:41;;;;;;;40.35;17.3;;;;;;;-1.41;90.54102;94516.94;;;;
2020/12/03 03:43:42;;;;;;;40.35;17.3;;;;;;;-1.41;90.54102;94516.94;;;;
2020/12/03 03:44:43;;;;;;;40.35;17.3;;;;;;;-1.41;90.54102;94516.94;;;;
2020/12/03 03:45:43;;;;;;;45.14999;17.45;;;;;;;-1.4;90.77344;94532.64;;;;
2020/12/03 03:46:44;;;;;;;45.14999;17.45;;;;;;;-1.4;90.77344;94532.64;;;;
2020/12/03 03:47:44;;;;;;;45.14999;17.45;;;;;;;-1.4;90.77344;94532.64;;;;
2020/12/03 03:48:45;;;;;;;45.14999;17.45;;;;;;;-1.4;90.77344;94532.64;;;;
2020/12/03 03:49:45;;;;;;;45.14999;17.45;;;;;;;-1.4;90.77344;94532.64;;;;
2020/12/03 03:50:46;;;;;;;45.14999;17.45;;;;;;;-1.4;90.77344;94532.64;;;;
2020/12/03 03:51:47;;;;;;;45.14999;17.45;;;;;;;-1.4;90.77344;94532.64;;;;
2020/12/03 03:52:47;;;;;;;45.14999;17.45;;;;;;;-1.4;90.77344;94532.64;;;;
2020/12/03 03:53:48;;;;;;;45.14999;17.45;;;;;;;-1.4;90.77344;94532.64;;;;
2020/12/03 03:54:48;;;;;;;45.14999;17.45;;;;;;;-1.4;90.77344;94532.64;;;;
2020/12/03 03:55:49;;;;;;;40.55;17.1;;;;;;;-1.41;90.72754;94512.06;;;;
2020/12/03 03:56:49;;;;;;;40.55;17.1;;;;;;;-1.41;90.72754;94512.06;;;;
2020/12/03 03:57:50;;;;;;;40.55;17.1;;;;;;;-1.41;90.72754;94512.06;;;;
2020/12/03 03:58:51;;;;;;;40.55;17.1;;;;;;;-1.41;90.72754;94512.06;;;;
2020/12/03 03:59:51;;;;;;;40.55;17.1;;;;;;;-1.41;90.72754;94512.06;;;;
2020/12/03 04:00:52;;;;;;;40.55;17.1;;;;;;;-1.41;90.72754;94512.06;;;;
2020/12/03 04:01:52;;;;;;;40.55;17.1;;;;;;;-1.41;90.72754;94512.06;;;;
2020/12/03 04:02:53;;;;;;;40.55;17.1;;;;;;;-1.41;90.72754;94512.06;;;;
2020/12/03 04:03:53;;;;;;;40.55;17.1;;;;;;;-1.41;90.72754;94512.06;;;;
2020/12/03 04:04:54;;;;;;;40.55;17.1;;;;;;;-1.41;90.72754;94512.06;;;;
2020/12/03 04:05:54;;;;;;;40.55;17.1;;;;;;;-1.41;90.72754;94512.06;;;;
2020/12/03 04:06:55;;;;;;;41.25;16.95;;;;;;;-1.48;90.84863;94477.65;;;;
2020/12/03 04:07:56;;;;;;;41.25;16.95;;;;;;;-1.48;90.84863;94477.65;;;;
2020/12/03 04:08:56;;;;;;;41.25;16.95;;;;;;;-1.48;90.84863;94477.65;;;;
2020/12/03 04:09:57;;;;;;;41.25;16.95;;;;;;;-1.48;90.84863;94477.65;;;;
2020/12/03 04:10:57;;;;;;;41.25;16.95;;;;;;;-1.48;90.84863;94477.65;;;;
2020/12/03 04:11:57;;;;;;;41.25;16.95;;;;;;;-1.48;90.84863;94477.65;;;;
2020/12/03 04:12:58;;;;;;;41.25;16.95;;;;;;;-1.48;90.84863;94477.65;;;;
2020/12/03 04:13:59;;;;;;;41.25;16.95;;;;;;;-1.48;90.84863;94477.65;;;;
2020/12/03 04:15:00;;;;;;;41.25;16.95;;;;;;;-1.48;90.84863;94477.65;;;;
2020/12/03 04:16:01;;;;;;;41.25;16.95;;;;;;;-1.48;90.84863;94477.65;;;;
2020/12/03 04:17:01;;;;;;;39.2;16.2;;;;;;;-1.56;91.08008;94473.67;;;;
2020/12/03 04:18:02;;;;;;;39.2;16.2;;;;;;;-1.56;91.08008;94473.67;;;;
2020/12/03 04:19:04;;;;;;;39.2;16.2;;;;;;;-1.56;91.08008;94473.67;;;;
2020/12/03 04:20:04;;;;;;;39.2;16.2;;;;;;;-1.56;91.08008;94473.67;;;;
2020/12/03 04:21:07;;;;;;;39.2;16.2;;;;;;;-1.56;91.08008;94473.67;;;;
2020/12/03 04:22:09;;;;;;;39.2;16.2;;;;;;;-1.56;91.08008;94473.67;;;;
2020/12/03 04:23:09;;;;;;;39.2;16.2;;;;;;;-1.56;91.08008;94473.67;;;;
2020/12/03 04:24:10;;;;;;;39.2;16.2;;;;;;;-1.56;91.08008;94473.67;;;;
2020/12/03 04:25:11;;;;;;;39.2;16.2;;;;;;;-1.56;91.08008;94473.67;;;;
2020/12/03 04:26:12;;;;;;;39.2;16.2;;;;;;;-1.56;91.08008;94473.67;;;;
2020/12/03 04:27:13;;;;;;;39.2;16.2;;;;;;;-1.56;91.08008;94473.67;;;;
2020/12/03 04:28:13;;;;;;;38.95;16.65;;;;;;;-1.53;91.21094;94474.63;;;;
2020/12/03 04:29:14;;;;;;;38.95;16.65;;;;;;;-1.53;91.21094;94474.63;;;;
2020/12/03 04:30:15;;;;;;;38.95;16.65;;;;;;;-1.53;91.21094;94474.63;;;;
2020/12/03 04:31:16;;;;;;;38.95;16.65;;;;;;;-1.53;91.21094;94474.63;;;;
2020/12/03 04:32:16;;;;;;;38.95;16.65;;;;;;;-1.53;91.21094;94474.63;;;;
2020/12/03 04:33:17;;;;;;;38.95;16.65;;;;;;;-1.53;91.21094;94474.63;;;;
2020/12/03 04:34:17;;;;;;;38.95;16.65;;;;;;;-1.53;91.21094;94474.63;;;;
2020/12/03 04:35:18;;;;;;;38.95;16.65;;;;;;;-1.53;91.21094;94474.63;;;;
2020/12/03 04:36:19;;;;;;;38.95;16.65;;;;;;;-1.53;91.21094;94474.63;;;;
2020/12/03 04:37:19;;;;;;;38.95;16.65;;;;;;;-1.53;91.21094;94474.63;;;;
2020/12/03 04:38:20;;;;;;;39.75;16.65;;;;;;;-1.5;90.99707;94480.06;;;;
2020/12/03 04:39:21;;;;;;;39.75;16.65;;;;;;;-1.5;90.99707;94480.06;;;;
2020/12/03 04:40:21;;;;;;;39.75;16.65;;;;;;;-1.5;90.99707;94480.06;;;;
2020/12/03 04:41:27;;;;;;;39.75;16.65;;;;;;;-1.5;90.99707;94480.06;;;;
2020/12/03 04:42:27;;;;;;;39.75;16.65;;;;;;;-1.5;90.99707;94480.06;;;;
2020/12/03 04:43:31;;;;;;;39.75;16.65;;;;;;;-1.5;90.99707;94480.06;;;;
2020/12/03 04:44:38;;;;;;;39.75;16.65;;;;;;;-1.5;90.99707;94480.06;;;;
2020/12/03 04:45:39;;;;;;;39.75;16.65;;;;;;;-1.5;90.99707;94480.06;;;;
2020/12/03 04:46:43;;;;;;;39.75;16.65;;;;;;;-1.5;90.99707;94480.06;;;;
2020/12/03 04:47:51;;;;;;;39.75;16.65;;;;;;;-1.5;90.99707;94480.06;;;;
2020/12/03 04:49:02;;;;;;;38.8;15.9;;;;;;;-1.53;90.84863;94458.75;;;;
2020/12/03 04:50:10;;;;;;;38.8;15.9;;;;;;;-1.53;90.84863;94458.75;;;;
2020/12/03 04:51:25;;;;;;;38.8;15.9;;;;;;;-1.53;90.84863;94458.75;;;;
2020/12/03 04:52:41;;;;;;;38.8;15.9;;;;;;;-1.53;90.84863;94458.75;;;;
2020/12/03 04:53:59;;;;;;;38.8;15.9;;;;;;;-1.53;90.84863;94458.75;;;;
2020/12/03 04:55:19;;;;;;;38.8;15.9;;;;;;;-1.53;90.84863;94458.75;;;;
2020/12/03 04:56:25;;;;;;;38.8;15.9;;;;;;;-1.53;90.84863;94458.75;;;;
2020/12/03 04:57:31;;;;;;;38.8;15.9;;;;;;;-1.53;90.84863;94458.75;;;;
2020/12/03 04:58:39;;;;;;;38.8;15.9;;;;;;;-1.53;90.84863;94458.75;;;;
2020/12/03 04:59:47;;;;;;;42.35;15.7;;;;;;;-1.63;90.90918;94435.3;;;;
2020/12/03 05:01:00;;;;;;;42.35;15.7;;;;;;;-1.63;90.90918;94435.3;;;;
2020/12/03 05:02:17;;;;;;;42.35;15.7;;;;;;;-1.63;90.90918;94435.3;;;;
2020/12/03 05:03:45;;;;;;;42.35;15.7;;;;;;;-1.63;90.90918;94435.3;;;;
2020/12/03 05:05:01;;;;;;;42.35;15.7;;;;;;;-1.63;90.90918;94435.3;;;;
2020/12/03 05:06:18;;;;;;;42.35;15.7;;;;;;;-1.63;90.90918;94435.3;;;;
2020/12/03 05:07:33;;;;;;;42.35;15.7;;;;;;;-1.63;90.90918;94435.3;;;;
2020/12/03 05:08:34;;;;;;;42.35;15.7;;;;;;;-1.63;90.90918;94435.3;;;;
2020/12/03 05:09:42;;;;;;;42.35;15.7;;;;;;;-1.63;90.90918;94435.3;;;;
2020/12/03 05:10:51;;;;;;;37.3;15.2;;;;;;;-1.71;91.3252;94431.83;;;;
2020/12/03 05:11:52;;;;;;;37.3;15.2;;;;;;;-1.71;91.3252;94431.83;;;;
2020/12/03 05:12:56;;;;;;;37.3;15.2;;;;;;;-1.71;91.3252;94431.83;;;;
2020/12/03 05:13:57;;;;;;;37.3;15.2;;;;;;;-1.71;91.3252;94431.83;;;;
2020/12/03 05:15:06;;;;;;;37.3;15.2;;;;;;;-1.71;91.3252;94431.83;;;;
2020/12/03 05:16:17;;;;;;;37.3;15.2;;;;;;;-1.71;91.3252;94431.83;;;;
2020/12/03 05:17:30;;;;;;;37.3;15.2;;;;;;;-1.71;91.3252;94431.83;;;;
2020/12/03 05:18:42;;;;;;;37.3;15.2;;;;;;;-1.71;91.3252;94431.83;;;;
2020/12/03 05:19:51;;;;;;;37.3;15.2;;;;;;;-1.71;91.3252;94431.83;;;;
2020/12/03 05:21:17;;;;;;;39.7;16.7;;;;;;;-1.73;91.45605;94416.25;;;;
2020/12/03 05:22:22;;;;;;;39.7;16.7;;;;;;;-1.73;91.45605;94416.25;;;;
2020/12/03 05:23:23;;;;;;;39.7;16.7;;;;;;;-1.73;91.45605;94416.25;;;;
2020/12/03 05:24:26;;;;;;;39.7;16.7;;;;;;;-1.73;91.45605;94416.25;;;;
2020/12/03 05:25:27;;;;;;;39.7;16.7;;;;;;;-1.73;91.45605;94416.25;;;;
2020/12/03 05:26:28;;;;;;;39.7;16.7;;;;;;;-1.73;91.45605;94416.25;;;;
2020/12/03 05:27:30;;;;;;;39.7;16.7;;;;;;;-1.73;91.45605;94416.25;;;;
2020/12/03 05:28:34;;;;;;;39.7;16.7;;;;;;;-1.73;91.45605;94416.25;;;;
2020/12/03 05:29:44;;;;;;;39.7;16.7;;;;;;;-1.73;91.45605;94416.25;;;;
2020/12/03 05:30:47;;;;;;;39.7;16.7;;;;;;;-1.73;91.45605;94416.25;;;;
2020/12/03 05:31:48;;;;;;;40.9;16.1;;;;;;;-1.73;91.53906;94439.65;;;;
2020/12/03 05:32:48;;;;;;;40.9;16.1;;;;;;;-1.73;91.53906;94439.65;;;;
2020/12/03 05:33:49;;;;;;;40.9;16.1;;;;;;;-1.73;91.53906;94439.65;;;;
2020/12/03 05:34:50;;;;;;;40.9;16.1;;;;;;;-1.73;91.53906;94439.65;;;;
2020/12/03 05:35:51;;;;;;;40.9;16.1;;;;;;;-1.73;91.53906;94439.65;;;;
2020/12/03 05:36:51;;;;;;;40.9;16.1;;;;;;;-1.73;91.53906;94439.65;;;;
2020/12/03 05:38:04;;;;;;;40.9;16.1;;;;;;;-1.73;91.53906;94439.65;;;;
2020/12/03 05:39:05;;;;;;;40.9;16.1;;;;;;;-1.73;91.53906;94439.65;;;;
2020/12/03 05:40:08;;;;;;;40.9;16.1;;;;;;;-1.73;91.53906;94439.65;;;;
2020/12/03 05:41:19;;;;;;;40.9;16.1;;;;;;;-1.73;91.53906;94439.65;;;;
2020/12/03 05:42:22;;;;;;;39.95;16.15;;;;;;;-1.72;91.61523;94439.45;;;;
2020/12/03 05:43:26;;;;;;;39.95;16.15;;;;;;;-1.72;91.61523;94439.45;;;;
2020/12/03 05:44:28;;;;;;;39.95;16.15;;;;;;;-1.72;91.61523;94439.45;;;;